Yuzhno-Sakhalinsk Airport
UHSS : now visible

Airfield :











YOU CAN JOIN US ON...

 
LOGIN :

Register | Disclaimer

   EN    FR    IT 

 









Legend :    VFR   Marginal VFR   IFR   Intensive IFR   Very Intensive IFR
Visi :
Ceiling :
>= 8 km
>= 3000ft
5 to 8 km
1000 to 3000 ft
1500m to 5 km
500 to 1000 ft
800 to 1500m
200 to 500 ft
< 800m
< 200 ft
Symbols :   Thunderstorms  Fog  Heavy snow  Heavy precipitations  Wind > 20 kt






- Airport Elevation : 59 ft
- IATA code : UUS


UHSS - Yuzhno-Sakhalinsk

CURRENT METAR :
  • 250800Z 32005MPS 9999 FEW033CB M15/M22 Q1024 R01/810260 NOSIG RMK MT OBSC QFE767/1022

EXPIRED METARs :
  • 250730Z 32004MPS 9999 FEW033CB M14/M22 Q1024 R01/810260 NOSIG RMK MT OBSC QFE766/1022
  • 250700Z 32009MPS 9999 DRSN SCT030CB M13/M21 Q1023 R01/810260 NOSIG RMK MT OBSC QFE766/1022
  • 250630Z 34006G11MPS 9999 -SHSN DRSN SCT033CB M13/M19 Q1023 R01/810260 NOSIG RMK MT OBSC QFE766/1021
  • 250600Z 33006G11MPS 9999 -SHSN DRSN SCT033CB M12/M19 Q1022 R01/810260 NOSIG RMK MT OBSC QFE765/1021
  • 250530Z 31009MPS 9999 DRSN SCT033 M12/M21 Q1022 R01/810260 NOSIG RMK MT OBSC QFE765/1020

TAF TAF UHSS
Valid from the 25 at 06:00 until the 26 at 12:00 UTC


250455Z 2506/2612 32008MPS 9999 DRSN BKN030CB
BECMG 2507/2509 32003MPS 9999 NSW



MET'MAP, your aeronautical weather chart ! - Copyright ORBIFLY December 2007 - Disclaimer

ORBIFLY MET'MAP TEAM :

Programming & Development : Alexandra Zaïnal
Concept & original design : Baudouin d'Aumeries
Assistance for programming : Marc-Olivier Méhu
Technical & hardware support : Manuel Goepfert

Contact : metmap@orbifly.com




SOURCES & CREDITS :

   NOAA       Earth
Advisory